sensor_id;sensor_type;location;lat;lon;timestamp;P1;durP1;ratioP1;P2;durP2;ratioP2
68089;SDS011;54880;50.986;6.990;2023-08-07T00:00:21;8.23;;;2.42;;
68089;SDS011;54880;50.986;6.990;2023-08-07T00:02:46;25.30;;;2.80;;
68089;SDS011;54880;50.986;6.990;2023-08-07T00:05:12;13.30;;;2.63;;
68089;SDS011;54880;50.986;6.990;2023-08-07T00:07:37;13.40;;;2.20;;
68089;SDS011;54880;50.986;6.990;2023-08-07T00:10:02;15.03;;;2.40;;
68089;SDS011;54880;50.986;6.990;2023-08-07T00:12:28;13.50;;;3.83;;
68089;SDS011;54880;50.986;6.990;2023-08-07T00:14:53;11.13;;;2.50;;
68089;SDS011;54880;50.986;6.990;2023-08-07T00:17:19;8.93;;;2.80;;
68089;SDS011;54880;50.986;6.990;2023-08-07T00:19:44;16.07;;;2.90;;
68089;SDS011;54880;50.986;6.990;2023-08-07T00:22:09;11.03;;;2.80;;
68089;SDS011;54880;50.986;6.990;2023-08-07T00:24:34;16.58;;;3.97;;
68089;SDS011;54880;50.986;6.990;2023-08-07T00:27:00;15.70;;;3.30;;
68089;SDS011;54880;50.986;6.990;2023-08-07T00:29:25;12.13;;;3.07;;
68089;SDS011;54880;50.986;6.990;2023-08-07T00:31:51;15.30;;;2.97;;
68089;SDS011;54880;50.986;6.990;2023-08-07T00:34:16;16.03;;;3.40;;
68089;SDS011;54880;50.986;6.990;2023-08-07T00:36:42;11.30;;;2.35;;
68089;SDS011;54880;50.986;6.990;2023-08-07T00:39:07;10.60;;;2.50;;
68089;SDS011;54880;50.986;6.990;2023-08-07T00:41:38;12.27;;;2.97;;
68089;SDS011;54880;50.986;6.990;2023-08-07T00:44:03;13.27;;;2.90;;
68089;SDS011;54880;50.986;6.990;2023-08-07T00:46:29;15.87;;;2.97;;
68089;SDS011;54880;50.986;6.990;2023-08-07T00:48:54;14.77;;;3.00;;
68089;SDS011;54880;50.986;6.990;2023-08-07T00:51:20;17.58;;;2.97;;
68089;SDS011;54880;50.986;6.990;2023-08-07T00:53:46;10.82;;;2.70;;
68089;SDS011;54880;50.986;6.990;2023-08-07T00:56:12;10.37;;;3.00;;
68089;SDS011;54880;50.986;6.990;2023-08-07T00:58:37;10.25;;;3.05;;
68089;SDS011;54880;50.986;6.990;2023-08-07T01:01:02;7.97;;;2.80;;
68089;SDS011;54880;50.986;6.990;2023-08-07T01:03:28;13.80;;;2.87;;
68089;SDS011;54880;50.986;6.990;2023-08-07T01:05:53;11.00;;;2.43;;
68089;SDS011;54880;50.986;6.990;2023-08-07T01:08:19;9.70;;;2.43;;
68089;SDS011;54880;50.986;6.990;2023-08-07T01:13:42;17.38;;;4.10;;
68089;SDS011;54880;50.986;6.990;2023-08-07T01:16:10;8.30;;;2.53;;
68089;SDS011;54880;50.986;6.990;2023-08-07T01:18:37;12.30;;;2.50;;
68089;SDS011;54880;50.986;6.990;2023-08-07T01:21:03;14.07;;;3.72;;
68089;SDS011;54880;50.986;6.990;2023-08-07T01:23:29;20.57;;;3.80;;
68089;SDS011;54880;50.986;6.990;2023-08-07T01:25:54;17.87;;;3.60;;
68089;SDS011;54880;50.986;6.990;2023-08-07T01:30:48;11.48;;;3.40;;
68089;SDS011;54880;50.986;6.990;2023-08-07T01:35:43;13.17;;;3.57;;
68089;SDS011;54880;50.986;6.990;2023-08-07T01:38:09;17.75;;;3.17;;
68089;SDS011;54880;50.986;6.990;2023-08-07T01:40:36;17.80;;;3.72;;
68089;SDS011;54880;50.986;6.990;2023-08-07T01:43:02;14.67;;;3.60;;
68089;SDS011;54880;50.986;6.990;2023-08-07T01:45:28;14.53;;;3.30;;
68089;SDS011;54880;50.986;6.990;2023-08-07T01:47:54;18.42;;;3.65;;
68089;SDS011;54880;50.986;6.990;2023-08-07T01:50:22;13.60;;;3.47;;
68089;SDS011;54880;50.986;6.990;2023-08-07T01:52:48;14.93;;;3.80;;
68089;SDS011;54880;50.986;6.990;2023-08-07T01:55:17;14.47;;;3.30;;
68089;SDS011;54880;50.986;6.990;2023-08-07T01:57:49;17.13;;;3.75;;
68089;SDS011;54880;50.986;6.990;2023-08-07T02:00:14;17.07;;;3.23;;
68089;SDS011;54880;50.986;6.990;2023-08-07T02:02:42;16.13;;;3.10;;
68089;SDS011;54880;50.986;6.990;2023-08-07T02:05:07;12.03;;;3.50;;
68089;SDS011;54880;50.986;6.990;2023-08-07T02:07:34;18.67;;;2.90;;
68089;SDS011;54880;50.986;6.990;2023-08-07T02:10:01;12.93;;;3.03;;
68089;SDS011;54880;50.986;6.990;2023-08-07T02:12:26;14.00;;;3.27;;
68089;SDS011;54880;50.986;6.990;2023-08-07T02:14:52;14.57;;;3.57;;
68089;SDS011;54880;50.986;6.990;2023-08-07T02:17:20;14.60;;;3.30;;
68089;SDS011;54880;50.986;6.990;2023-08-07T02:19:45;16.63;;;3.20;;
68089;SDS011;54880;50.986;6.990;2023-08-07T02:22:11;15.23;;;3.27;;
68089;SDS011;54880;50.986;6.990;2023-08-07T02:24:36;15.90;;;3.20;;
68089;SDS011;54880;50.986;6.990;2023-08-07T02:27:01;11.70;;;3.30;;
68089;SDS011;54880;50.986;6.990;2023-08-07T02:29:26;12.73;;;3.10;;
68089;SDS011;54880;50.986;6.990;2023-08-07T02:31:52;13.43;;;3.60;;
68089;SDS011;54880;50.986;6.990;2023-08-07T02:34:17;13.57;;;2.97;;
68089;SDS011;54880;50.986;6.990;2023-08-07T02:36:42;10.13;;;3.10;;
68089;SDS011;54880;50.986;6.990;2023-08-07T02:39:07;9.60;;;3.27;;
68089;SDS011;54880;50.986;6.990;2023-08-07T02:41:33;15.33;;;3.30;;
68089;SDS011;54880;50.986;6.990;2023-08-07T02:43:59;13.05;;;3.08;;
68089;SDS011;54880;50.986;6.990;2023-08-07T02:46:25;11.67;;;3.20;;
68089;SDS011;54880;50.986;6.990;2023-08-07T02:48:50;12.23;;;3.50;;
68089;SDS011;54880;50.986;6.990;2023-08-07T02:51:15;14.53;;;3.40;;
68089;SDS011;54880;50.986;6.990;2023-08-07T02:53:41;12.63;;;3.27;;
68089;SDS011;54880;50.986;6.990;2023-08-07T02:56:06;11.30;;;2.90;;
68089;SDS011;54880;50.986;6.990;2023-08-07T02:58:31;13.00;;;3.50;;
68089;SDS011;54880;50.986;6.990;2023-08-07T03:00:57;12.27;;;3.20;;
68089;SDS011;54880;50.986;6.990;2023-08-07T03:03:27;12.95;;;3.28;;
68089;SDS011;54880;50.986;6.990;2023-08-07T03:05:52;12.27;;;3.53;;
68089;SDS011;54880;50.986;6.990;2023-08-07T03:08:18;18.60;;;4.37;;
68089;SDS011;54880;50.986;6.990;2023-08-07T03:10:53;11.90;;;3.20;;
68089;SDS011;54880;50.986;6.990;2023-08-07T03:13:18;13.05;;;3.25;;
68089;SDS011;54880;50.986;6.990;2023-08-07T03:15:43;15.00;;;3.50;;
68089;SDS011;54880;50.986;6.990;2023-08-07T03:18:09;18.10;;;3.30;;
68089;SDS011;54880;50.986;6.990;2023-08-07T03:20:36;15.10;;;2.93;;
68089;SDS011;54880;50.986;6.990;2023-08-07T03:23:01;13.27;;;3.20;;
68089;SDS011;54880;50.986;6.990;2023-08-07T03:25:26;14.30;;;3.20;;
68089;SDS011;54880;50.986;6.990;2023-08-07T03:27:52;20.13;;;3.30;;
68089;SDS011;54880;50.986;6.990;2023-08-07T03:30:17;14.20;;;3.37;;
68089;SDS011;54880;50.986;6.990;2023-08-07T03:32:43;17.65;;;3.67;;
68089;SDS011;54880;50.986;6.990;2023-08-07T03:35:11;12.50;;;3.03;;
68089;SDS011;54880;50.986;6.990;2023-08-07T03:37:36;19.17;;;3.60;;
68089;SDS011;54880;50.986;6.990;2023-08-07T03:40:01;13.97;;;3.83;;
68089;SDS011;54880;50.986;6.990;2023-08-07T03:42:28;13.50;;;3.38;;
68089;SDS011;54880;50.986;6.990;2023-08-07T03:44:54;14.43;;;4.07;;
68089;SDS011;54880;50.986;6.990;2023-08-07T03:47:19;15.45;;;3.88;;
68089;SDS011;54880;50.986;6.990;2023-08-07T03:49:45;15.82;;;3.88;;
68089;SDS011;54880;50.986;6.990;2023-08-07T03:52:10;15.17;;;3.93;;
68089;SDS011;54880;50.986;6.990;2023-08-07T03:54:35;15.70;;;3.23;;
68089;SDS011;54880;50.986;6.990;2023-08-07T03:57:01;19.57;;;3.80;;
68089;SDS011;54880;50.986;6.990;2023-08-07T03:59:27;10.10;;;3.42;;
68089;SDS011;54880;50.986;6.990;2023-08-07T04:01:52;12.03;;;3.20;;
68089;SDS011;54880;50.986;6.990;2023-08-07T04:04:17;10.10;;;3.27;;
68089;SDS011;54880;50.986;6.990;2023-08-07T04:06:42;11.03;;;2.87;;
68089;SDS011;54880;50.986;6.990;2023-08-07T04:09:09;13.30;;;3.10;;
68089;SDS011;54880;50.986;6.990;2023-08-07T04:11:35;10.95;;;3.53;;
68089;SDS011;54880;50.986;6.990;2023-08-07T04:14:02;13.43;;;3.00;;
68089;SDS011;54880;50.986;6.990;2023-08-07T04:16:27;17.25;;;3.40;;
68089;SDS011;54880;50.986;6.990;2023-08-07T04:18:53;13.03;;;2.50;;
68089;SDS011;54880;50.986;6.990;2023-08-07T04:21:18;14.40;;;2.73;;
68089;SDS011;54880;50.986;6.990;2023-08-07T04:23:43;9.43;;;3.10;;
68089;SDS011;54880;50.986;6.990;2023-08-07T04:26:09;14.97;;;3.30;;
68089;SDS011;54880;50.986;6.990;2023-08-07T04:28:34;12.73;;;4.00;;
68089;SDS011;54880;50.986;6.990;2023-08-07T04:31:00;10.60;;;2.85;;
68089;SDS011;54880;50.986;6.990;2023-08-07T04:33:25;12.33;;;2.80;;
68089;SDS011;54880;50.986;6.990;2023-08-07T04:35:50;14.23;;;3.53;;
68089;SDS011;54880;50.986;6.990;2023-08-07T04:38:16;12.57;;;3.00;;
68089;SDS011;54880;50.986;6.990;2023-08-07T04:40:48;18.43;;;3.70;;
68089;SDS011;54880;50.986;6.990;2023-08-07T04:43:14;13.07;;;3.50;;
68089;SDS011;54880;50.986;6.990;2023-08-07T04:45:40;11.77;;;3.72;;
68089;SDS011;54880;50.986;6.990;2023-08-07T04:48:06;11.85;;;3.92;;
68089;SDS011;54880;50.986;6.990;2023-08-07T04:50:31;11.60;;;3.80;;
68089;SDS011;54880;50.986;6.990;2023-08-07T04:52:57;12.93;;;4.20;;
68089;SDS011;54880;50.986;6.990;2023-08-07T04:55:22;17.50;;;4.10;;
68089;SDS011;54880;50.986;6.990;2023-08-07T04:57:47;15.23;;;4.30;;
68089;SDS011;54880;50.986;6.990;2023-08-07T05:00:14;16.05;;;4.32;;
68089;SDS011;54880;50.986;6.990;2023-08-07T05:02:39;13.37;;;4.50;;
68089;SDS011;54880;50.986;6.990;2023-08-07T05:05:05;12.38;;;3.63;;
68089;SDS011;54880;50.986;6.990;2023-08-07T05:07:32;14.25;;;3.63;;
68089;SDS011;54880;50.986;6.990;2023-08-07T05:09:57;14.07;;;3.70;;
68089;SDS011;54880;50.986;6.990;2023-08-07T05:12:24;18.50;;;4.03;;
68089;SDS011;54880;50.986;6.990;2023-08-07T05:14:50;15.27;;;4.27;;
68089;SDS011;54880;50.986;6.990;2023-08-07T05:17:15;14.77;;;3.63;;
68089;SDS011;54880;50.986;6.990;2023-08-07T05:19:40;16.47;;;3.53;;
68089;SDS011;54880;50.986;6.990;2023-08-07T05:22:05;12.87;;;2.90;;
68089;SDS011;54880;50.986;6.990;2023-08-07T05:24:30;15.50;;;3.33;;
68089;SDS011;54880;50.986;6.990;2023-08-07T05:27:03;12.88;;;3.83;;
68089;SDS011;54880;50.986;6.990;2023-08-07T05:29:28;14.33;;;3.30;;
68089;SDS011;54880;50.986;6.990;2023-08-07T05:31:54;11.10;;;2.83;;
68089;SDS011;54880;50.986;6.990;2023-08-07T05:34:19;11.23;;;2.80;;
68089;SDS011;54880;50.986;6.990;2023-08-07T05:36:44;12.10;;;2.50;;
68089;SDS011;54880;50.986;6.990;2023-08-07T05:39:09;16.70;;;3.50;;
68089;SDS011;54880;50.986;6.990;2023-08-07T05:41:35;11.33;;;2.70;;
68089;SDS011;54880;50.986;6.990;2023-08-07T05:44:00;12.40;;;3.60;;
68089;SDS011;54880;50.986;6.990;2023-08-07T05:46:25;10.33;;;2.63;;
68089;SDS011;54880;50.986;6.990;2023-08-07T05:48:50;15.13;;;2.60;;
68089;SDS011;54880;50.986;6.990;2023-08-07T05:51:15;10.37;;;3.00;;
68089;SDS011;54880;50.986;6.990;2023-08-07T05:53:41;11.70;;;2.90;;
68089;SDS011;54880;50.986;6.990;2023-08-07T05:56:06;12.57;;;2.80;;
68089;SDS011;54880;50.986;6.990;2023-08-07T05:58:31;12.03;;;2.80;;
68089;SDS011;54880;50.986;6.990;2023-08-07T06:00:56;14.40;;;2.60;;
68089;SDS011;54880;50.986;6.990;2023-08-07T06:03:22;11.53;;;3.00;;
68089;SDS011;54880;50.986;6.990;2023-08-07T06:05:48;9.57;;;2.25;;
68089;SDS011;54880;50.986;6.990;2023-08-07T06:08:13;11.13;;;3.23;;
68089;SDS011;54880;50.986;6.990;2023-08-07T06:10:38;12.97;;;3.00;;
68089;SDS011;54880;50.986;6.990;2023-08-07T06:13:03;12.53;;;3.07;;
68089;SDS011;54880;50.986;6.990;2023-08-07T06:15:32;12.18;;;2.70;;
68089;SDS011;54880;50.986;6.990;2023-08-07T06:17:57;12.80;;;2.97;;
68089;SDS011;54880;50.986;6.990;2023-08-07T06:20:22;12.77;;;2.67;;
68089;SDS011;54880;50.986;6.990;2023-08-07T06:22:47;9.63;;;2.70;;
68089;SDS011;54880;50.986;6.990;2023-08-07T06:25:13;17.13;;;3.77;;
68089;SDS011;54880;50.986;6.990;2023-08-07T06:27:38;9.63;;;2.73;;
68089;SDS011;54880;50.986;6.990;2023-08-07T06:30:03;15.67;;;3.40;;
68089;SDS011;54880;50.986;6.990;2023-08-07T06:32:29;12.93;;;3.50;;
68089;SDS011;54880;50.986;6.990;2023-08-07T06:34:54;14.30;;;3.40;;
68089;SDS011;54880;50.986;6.990;2023-08-07T06:37:19;9.23;;;2.37;;
68089;SDS011;54880;50.986;6.990;2023-08-07T06:39:45;12.32;;;3.15;;
68089;SDS011;54880;50.986;6.990;2023-08-07T06:42:11;10.27;;;2.77;;
68089;SDS011;54880;50.986;6.990;2023-08-07T06:44:36;9.40;;;3.10;;
68089;SDS011;54880;50.986;6.990;2023-08-07T06:47:02;17.20;;;3.50;;
68089;SDS011;54880;50.986;6.990;2023-08-07T06:49:27;10.97;;;2.70;;
68089;SDS011;54880;50.986;6.990;2023-08-07T06:51:52;16.63;;;3.30;;
68089;SDS011;54880;50.986;6.990;2023-08-07T06:54:17;11.97;;;3.00;;
68089;SDS011;54880;50.986;6.990;2023-08-07T06:56:43;12.73;;;3.10;;
68089;SDS011;54880;50.986;6.990;2023-08-07T06:59:09;11.23;;;2.97;;
68089;SDS011;54880;50.986;6.990;2023-08-07T07:01:34;14.35;;;3.22;;
68089;SDS011;54880;50.986;6.990;2023-08-07T07:03:59;13.70;;;3.28;;
68089;SDS011;54880;50.986;6.990;2023-08-07T07:06:25;17.85;;;3.88;;
68089;SDS011;54880;50.986;6.990;2023-08-07T07:08:53;14.95;;;3.28;;
68089;SDS011;54880;50.986;6.990;2023-08-07T07:11:19;12.32;;;3.47;;
68089;SDS011;54880;50.986;6.990;2023-08-07T07:13:44;15.93;;;3.43;;
68089;SDS011;54880;50.986;6.990;2023-08-07T07:16:10;13.03;;;3.63;;
68089;SDS011;54880;50.986;6.990;2023-08-07T07:18:36;15.70;;;4.65;;
68089;SDS011;54880;50.986;6.990;2023-08-07T07:21:02;13.33;;;3.53;;
68089;SDS011;54880;50.986;6.990;2023-08-07T07:23:27;12.30;;;3.83;;
68089;SDS011;54880;50.986;6.990;2023-08-07T07:25:52;10.87;;;3.67;;
68089;SDS011;54880;50.986;6.990;2023-08-07T07:28:18;13.80;;;3.40;;
68089;SDS011;54880;50.986;6.990;2023-08-07T07:30:43;13.07;;;3.40;;
68089;SDS011;54880;50.986;6.990;2023-08-07T07:33:08;16.10;;;3.57;;
68089;SDS011;54880;50.986;6.990;2023-08-07T07:35:37;11.00;;;3.73;;
68089;SDS011;54880;50.986;6.990;2023-08-07T07:38:02;14.77;;;3.30;;
68089;SDS011;54880;50.986;6.990;2023-08-07T07:40:28;14.37;;;4.10;;
68089;SDS011;54880;50.986;6.990;2023-08-07T07:42:53;16.43;;;3.40;;
68089;SDS011;54880;50.986;6.990;2023-08-07T07:45:18;12.13;;;3.53;;
68089;SDS011;54880;50.986;6.990;2023-08-07T07:47:43;11.40;;;3.37;;
68089;SDS011;54880;50.986;6.990;2023-08-07T07:50:09;14.87;;;4.13;;
68089;SDS011;54880;50.986;6.990;2023-08-07T07:52:34;10.15;;;2.90;;
68089;SDS011;54880;50.986;6.990;2023-08-07T07:55:00;10.10;;;2.90;;
68089;SDS011;54880;50.986;6.990;2023-08-07T07:57:25;11.40;;;3.00;;
68089;SDS011;54880;50.986;6.990;2023-08-07T07:59:51;11.45;;;3.28;;
68089;SDS011;54880;50.986;6.990;2023-08-07T08:02:16;10.90;;;2.63;;
68089;SDS011;54880;50.986;6.990;2023-08-07T08:04:42;10.20;;;3.00;;
68089;SDS011;54880;50.986;6.990;2023-08-07T08:07:07;10.90;;;2.87;;
68089;SDS011;54880;50.986;6.990;2023-08-07T08:09:33;10.77;;;2.87;;
68089;SDS011;54880;50.986;6.990;2023-08-07T08:11:59;9.68;;;2.65;;
68089;SDS011;54880;50.986;6.990;2023-08-07T08:14:24;13.27;;;2.67;;
68089;SDS011;54880;50.986;6.990;2023-08-07T08:16:49;10.80;;;2.63;;
68089;SDS011;54880;50.986;6.990;2023-08-07T08:19:15;14.30;;;3.03;;
68089;SDS011;54880;50.986;6.990;2023-08-07T08:21:41;13.23;;;3.50;;
68089;SDS011;54880;50.986;6.990;2023-08-07T08:24:07;10.67;;;2.90;;
68089;SDS011;54880;50.986;6.990;2023-08-07T08:26:32;13.77;;;3.87;;
68089;SDS011;54880;50.986;6.990;2023-08-07T08:28:57;14.40;;;3.60;;
68089;SDS011;54880;50.986;6.990;2023-08-07T08:31:22;10.27;;;2.60;;
68089;SDS011;54880;50.986;6.990;2023-08-07T08:33:49;8.63;;;3.10;;
68089;SDS011;54880;50.986;6.990;2023-08-07T08:36:14;12.53;;;3.30;;
68089;SDS011;54880;50.986;6.990;2023-08-07T08:38:39;13.97;;;3.20;;
68089;SDS011;54880;50.986;6.990;2023-08-07T08:41:05;16.67;;;3.63;;
68089;SDS011;54880;50.986;6.990;2023-08-07T08:43:34;15.13;;;3.30;;
68089;SDS011;54880;50.986;6.990;2023-08-07T08:46:00;12.00;;;3.50;;
68089;SDS011;54880;50.986;6.990;2023-08-07T08:48:26;10.25;;;3.08;;
68089;SDS011;54880;50.986;6.990;2023-08-07T08:50:53;10.70;;;3.15;;
68089;SDS011;54880;50.986;6.990;2023-08-07T08:53:19;12.43;;;3.20;;
68089;SDS011;54880;50.986;6.990;2023-08-07T08:55:45;12.90;;;3.17;;
68089;SDS011;54880;50.986;6.990;2023-08-07T08:58:13;13.25;;;2.60;;
68089;SDS011;54880;50.986;6.990;2023-08-07T09:00:39;9.50;;;3.15;;
68089;SDS011;54880;50.986;6.990;2023-08-07T09:03:05;13.20;;;2.80;;
68089;SDS011;54880;50.986;6.990;2023-08-07T09:05:30;11.63;;;2.70;;
68089;SDS011;54880;50.986;6.990;2023-08-07T09:07:56;16.77;;;3.17;;
68089;SDS011;54880;50.986;6.990;2023-08-07T09:10:21;11.40;;;3.10;;
68089;SDS011;54880;50.986;6.990;2023-08-07T09:12:54;11.68;;;2.70;;
68089;SDS011;54880;50.986;6.990;2023-08-07T09:15:22;13.10;;;2.90;;
68089;SDS011;54880;50.986;6.990;2023-08-07T09:17:48;17.60;;;3.63;;
68089;SDS011;54880;50.986;6.990;2023-08-07T09:20:14;14.02;;;2.85;;
68089;SDS011;54880;50.986;6.990;2023-08-07T09:22:40;14.30;;;3.03;;
68089;SDS011;54880;50.986;6.990;2023-08-07T09:25:06;9.60;;;2.70;;
68089;SDS011;54880;50.986;6.990;2023-08-07T09:27:31;10.82;;;3.13;;
68089;SDS011;54880;50.986;6.990;2023-08-07T09:29:57;12.68;;;2.47;;
68089;SDS011;54880;50.986;6.990;2023-08-07T09:32:22;10.05;;;2.53;;
68089;SDS011;54880;50.986;6.990;2023-08-07T09:34:49;10.88;;;2.50;;
68089;SDS011;54880;50.986;6.990;2023-08-07T09:37:14;12.37;;;3.03;;
68089;SDS011;54880;50.986;6.990;2023-08-07T09:39:40;13.20;;;2.40;;
68089;SDS011;54880;50.986;6.990;2023-08-07T09:42:12;11.20;;;2.63;;
68089;SDS011;54880;50.986;6.990;2023-08-07T09:44:37;13.13;;;2.50;;
68089;SDS011;54880;50.986;6.990;2023-08-07T09:47:15;13.20;;;2.83;;
68089;SDS011;54880;50.986;6.990;2023-08-07T09:49:41;11.75;;;2.38;;
68089;SDS011;54880;50.986;6.990;2023-08-07T09:52:08;14.35;;;2.45;;
68089;SDS011;54880;50.986;6.990;2023-08-07T09:54:34;10.13;;;2.50;;
68089;SDS011;54880;50.986;6.990;2023-08-07T09:57:00;8.55;;;2.20;;
68089;SDS011;54880;50.986;6.990;2023-08-07T09:59:26;6.65;;;1.70;;
68089;SDS011;54880;50.986;6.990;2023-08-07T10:01:52;10.90;;;1.47;;
68089;SDS011;54880;50.986;6.990;2023-08-07T10:04:17;7.22;;;1.80;;
68089;SDS011;54880;50.986;6.990;2023-08-07T10:06:43;10.47;;;2.20;;
68089;SDS011;54880;50.986;6.990;2023-08-07T10:09:08;8.87;;;1.50;;
68089;SDS011;54880;50.986;6.990;2023-08-07T10:11:34;10.13;;;1.90;;
68089;SDS011;54880;50.986;6.990;2023-08-07T10:13:59;6.28;;;1.35;;
68089;SDS011;54880;50.986;6.990;2023-08-07T10:16:26;9.43;;;1.53;;
68089;SDS011;54880;50.986;6.990;2023-08-07T10:18:51;11.45;;;2.53;;
68089;SDS011;54880;50.986;6.990;2023-08-07T10:21:17;9.97;;;2.17;;
68089;SDS011;54880;50.986;6.990;2023-08-07T10:23:42;7.93;;;1.85;;
68089;SDS011;54880;50.986;6.990;2023-08-07T10:26:08;12.40;;;2.00;;
68089;SDS011;54880;50.986;6.990;2023-08-07T10:28:35;11.25;;;1.63;;
68089;SDS011;54880;50.986;6.990;2023-08-07T10:31:08;7.75;;;2.00;;
68089;SDS011;54880;50.986;6.990;2023-08-07T10:33:34;10.83;;;2.07;;
68089;SDS011;54880;50.986;6.990;2023-08-07T10:36:00;11.30;;;1.90;;
68089;SDS011;54880;50.986;6.990;2023-08-07T10:38:25;10.30;;;1.83;;
68089;SDS011;54880;50.986;6.990;2023-08-07T10:41:06;7.60;;;1.80;;
68089;SDS011;54880;50.986;6.990;2023-08-07T10:43:42;9.60;;;2.00;;
68089;SDS011;54880;50.986;6.990;2023-08-07T10:46:11;12.03;;;1.73;;
68089;SDS011;54880;50.986;6.990;2023-08-07T10:48:38;9.15;;;1.98;;
68089;SDS011;54880;50.986;6.990;2023-08-07T10:51:03;9.10;;;1.67;;
68089;SDS011;54880;50.986;6.990;2023-08-07T10:55:57;7.38;;;1.65;;
68089;SDS011;54880;50.986;6.990;2023-08-07T10:58:29;8.63;;;1.80;;
68089;SDS011;54880;50.986;6.990;2023-08-07T11:03:40;10.40;;;1.90;;
68089;SDS011;54880;50.986;6.990;2023-08-07T11:06:05;8.57;;;1.60;;
68089;SDS011;54880;50.986;6.990;2023-08-07T11:08:31;7.85;;;1.90;;
68089;SDS011;54880;50.986;6.990;2023-08-07T11:10:57;8.27;;;1.50;;
68089;SDS011;54880;50.986;6.990;2023-08-07T11:13:23;9.45;;;1.50;;
68089;SDS011;54880;50.986;6.990;2023-08-07T11:15:48;7.10;;;1.30;;
68089;SDS011;54880;50.986;6.990;2023-08-07T11:18:14;5.47;;;1.40;;
68089;SDS011;54880;50.986;6.990;2023-08-07T11:20:41;8.13;;;1.35;;
68089;SDS011;54880;50.986;6.990;2023-08-07T11:23:07;6.33;;;1.60;;
68089;SDS011;54880;50.986;6.990;2023-08-07T11:25:32;9.77;;;1.73;;
68089;SDS011;54880;50.986;6.990;2023-08-07T11:27:58;7.55;;;1.35;;
68089;SDS011;54880;50.986;6.990;2023-08-07T11:30:23;7.30;;;1.70;;
68089;SDS011;54880;50.986;6.990;2023-08-07T11:32:48;7.03;;;1.43;;
68089;SDS011;54880;50.986;6.990;2023-08-07T11:35:14;6.80;;;1.97;;
68089;SDS011;54880;50.986;6.990;2023-08-07T11:37:46;6.33;;;1.30;;
68089;SDS011;54880;50.986;6.990;2023-08-07T11:40:12;6.00;;;1.30;;
68089;SDS011;54880;50.986;6.990;2023-08-07T11:42:37;6.97;;;1.97;;
68089;SDS011;54880;50.986;6.990;2023-08-07T11:45:03;7.57;;;1.70;;
68089;SDS011;54880;50.986;6.990;2023-08-07T11:47:29;7.70;;;1.52;;
68089;SDS011;54880;50.986;6.990;2023-08-07T11:49:54;9.53;;;1.60;;
68089;SDS011;54880;50.986;6.990;2023-08-07T11:52:20;7.20;;;1.53;;
68089;SDS011;54880;50.986;6.990;2023-08-07T11:54:47;8.10;;;1.80;;
68089;SDS011;54880;50.986;6.990;2023-08-07T11:57:16;9.07;;;1.85;;
68089;SDS011;54880;50.986;6.990;2023-08-07T11:59:42;8.63;;;1.50;;
68089;SDS011;54880;50.986;6.990;2023-08-07T12:02:10;7.87;;;1.77;;
68089;SDS011;54880;50.986;6.990;2023-08-07T12:04:39;8.32;;;1.63;;
68089;SDS011;54880;50.986;6.990;2023-08-07T12:07:05;10.50;;;1.80;;
68089;SDS011;54880;50.986;6.990;2023-08-07T12:09:30;6.83;;;1.80;;
68089;SDS011;54880;50.986;6.990;2023-08-07T12:11:58;8.27;;;1.90;;
68089;SDS011;54880;50.986;6.990;2023-08-07T12:14:27;10.32;;;1.77;;
68089;SDS011;54880;50.986;6.990;2023-08-07T12:16:54;8.63;;;2.10;;
68089;SDS011;54880;50.986;6.990;2023-08-07T12:19:19;10.53;;;1.70;;
68089;SDS011;54880;50.986;6.990;2023-08-07T12:21:44;6.43;;;1.60;;
68089;SDS011;54880;50.986;6.990;2023-08-07T12:24:10;11.37;;;2.40;;
68089;SDS011;54880;50.986;6.990;2023-08-07T12:26:36;7.47;;;1.73;;
68089;SDS011;54880;50.986;6.990;2023-08-07T12:29:01;7.73;;;1.57;;
68089;SDS011;54880;50.986;6.990;2023-08-07T12:31:26;7.17;;;1.70;;
68089;SDS011;54880;50.986;6.990;2023-08-07T12:33:51;10.27;;;1.80;;
68089;SDS011;54880;50.986;6.990;2023-08-07T12:36:17;6.83;;;1.40;;
68089;SDS011;54880;50.986;6.990;2023-08-07T12:38:42;7.60;;;1.87;;
68089;SDS011;54880;50.986;6.990;2023-08-07T12:41:07;6.03;;;1.77;;
68089;SDS011;54880;50.986;6.990;2023-08-07T12:43:32;6.53;;;2.07;;
68089;SDS011;54880;50.986;6.990;2023-08-07T12:45:59;8.23;;;1.67;;
68089;SDS011;54880;50.986;6.990;2023-08-07T12:48:24;7.13;;;1.60;;
68089;SDS011;54880;50.986;6.990;2023-08-07T12:50:51;9.02;;;1.70;;
68089;SDS011;54880;50.986;6.990;2023-08-07T12:53:17;7.03;;;1.60;;
68089;SDS011;54880;50.986;6.990;2023-08-07T12:55:42;7.83;;;1.87;;
68089;SDS011;54880;50.986;6.990;2023-08-07T12:58:07;6.90;;;1.70;;
68089;SDS011;54880;50.986;6.990;2023-08-07T13:00:32;7.40;;;1.40;;
68089;SDS011;54880;50.986;6.990;2023-08-07T13:02:58;8.47;;;2.00;;
68089;SDS011;54880;50.986;6.990;2023-08-07T13:05:24;6.88;;;1.75;;
68089;SDS011;54880;50.986;6.990;2023-08-07T13:07:49;6.27;;;1.53;;
68089;SDS011;54880;50.986;6.990;2023-08-07T13:10:15;7.27;;;1.90;;
68089;SDS011;54880;50.986;6.990;2023-08-07T13:12:41;8.15;;;2.20;;
68089;SDS011;54880;50.986;6.990;2023-08-07T13:15:08;9.63;;;1.85;;
68089;SDS011;54880;50.986;6.990;2023-08-07T13:17:33;5.05;;;1.55;;
68089;SDS011;54880;50.986;6.990;2023-08-07T13:19:59;7.07;;;1.90;;
68089;SDS011;54880;50.986;6.990;2023-08-07T13:22:25;6.90;;;2.13;;
68089;SDS011;54880;50.986;6.990;2023-08-07T13:24:50;5.60;;;1.57;;
68089;SDS011;54880;50.986;6.990;2023-08-07T13:27:15;7.17;;;1.70;;
68089;SDS011;54880;50.986;6.990;2023-08-07T13:29:41;6.50;;;1.40;;
68089;SDS011;54880;50.986;6.990;2023-08-07T13:32:06;7.70;;;2.00;;
68089;SDS011;54880;50.986;6.990;2023-08-07T13:34:35;7.82;;;1.60;;
68089;SDS011;54880;50.986;6.990;2023-08-07T13:37:00;6.18;;;1.63;;
68089;SDS011;54880;50.986;6.990;2023-08-07T13:39:26;6.27;;;1.90;;
68089;SDS011;54880;50.986;6.990;2023-08-07T13:41:51;6.60;;;1.80;;
68089;SDS011;54880;50.986;6.990;2023-08-07T13:44:16;5.37;;;1.60;;
68089;SDS011;54880;50.986;6.990;2023-08-07T13:46:42;5.13;;;1.73;;
68089;SDS011;54880;50.986;6.990;2023-08-07T13:49:09;6.28;;;1.70;;
68089;SDS011;54880;50.986;6.990;2023-08-07T13:51:34;5.63;;;1.30;;
68089;SDS011;54880;50.986;6.990;2023-08-07T13:53:59;6.90;;;1.60;;
68089;SDS011;54880;50.986;6.990;2023-08-07T13:56:25;6.40;;;1.67;;
68089;SDS011;54880;50.986;6.990;2023-08-07T13:58:50;6.00;;;1.50;;
68089;SDS011;54880;50.986;6.990;2023-08-07T14:01:15;5.50;;;1.50;;
68089;SDS011;54880;50.986;6.990;2023-08-07T14:03:40;7.50;;;2.07;;
68089;SDS011;54880;50.986;6.990;2023-08-07T14:06:06;7.43;;;1.70;;
68089;SDS011;54880;50.986;6.990;2023-08-07T14:08:31;7.20;;;1.77;;
68089;SDS011;54880;50.986;6.990;2023-08-07T14:10:57;6.50;;;1.95;;
68089;SDS011;54880;50.986;6.990;2023-08-07T14:13:23;9.80;;;2.47;;
68089;SDS011;54880;50.986;6.990;2023-08-07T14:15:48;7.97;;;1.67;;
68089;SDS011;54880;50.986;6.990;2023-08-07T14:18:14;7.63;;;2.03;;
68089;SDS011;54880;50.986;6.990;2023-08-07T14:20:40;7.80;;;1.50;;
68089;SDS011;54880;50.986;6.990;2023-08-07T14:23:06;6.23;;;2.03;;
68089;SDS011;54880;50.986;6.990;2023-08-07T14:25:31;5.53;;;1.87;;
68089;SDS011;54880;50.986;6.990;2023-08-07T14:27:56;9.40;;;2.10;;
68089;SDS011;54880;50.986;6.990;2023-08-07T14:30:21;10.97;;;2.30;;
68089;SDS011;54880;50.986;6.990;2023-08-07T14:32:47;7.53;;;2.10;;
68089;SDS011;54880;50.986;6.990;2023-08-07T14:35:12;8.30;;;2.37;;
68089;SDS011;54880;50.986;6.990;2023-08-07T14:37:38;6.90;;;1.67;;
68089;SDS011;54880;50.986;6.990;2023-08-07T14:40:03;9.80;;;2.20;;
68089;SDS011;54880;50.986;6.990;2023-08-07T14:42:28;9.13;;;2.20;;